createdAt,value
2023-02-18T00:01:41.778Z,99724.00
2023-02-18T00:04:10.941Z,99730.00
2023-02-18T00:06:39.134Z,99738.00
2023-02-18T00:09:08.953Z,99730.00
2023-02-18T00:11:38.821Z,99729.00
2023-02-18T00:14:11.715Z,99721.00
2023-02-18T00:16:41.772Z,99718.00
2023-02-18T00:19:15.713Z,99729.00
2023-02-18T00:21:44.595Z,99716.00
2023-02-18T00:24:16.427Z,99728.00
2023-02-18T00:26:45.416Z,99723.00
2023-02-18T00:29:13.620Z,99711.00
2023-02-18T00:31:44.915Z,99724.00
2023-02-18T00:34:14.542Z,99725.00
2023-02-18T00:36:43.140Z,99720.00
2023-02-18T00:39:13.371Z,99736.00
2023-02-18T00:41:42.909Z,99728.00
2023-02-18T00:44:11.875Z,99733.00
2023-02-18T00:46:40.591Z,99722.00
2023-02-18T00:49:10.719Z,99730.00
2023-02-18T00:51:38.624Z,99741.00
2023-02-18T00:54:06.736Z,99746.00
2023-02-18T00:56:34.741Z,99752.00
2023-02-18T00:59:02.878Z,99741.00
2023-02-18T01:01:30.926Z,99738.00
2023-02-18T01:03:58.866Z,99753.00
2023-02-18T01:06:28.102Z,99751.00
2023-02-18T01:08:56.074Z,99749.00
2023-02-18T01:11:23.990Z,99751.00
2023-02-18T01:13:52.236Z,99746.00
2023-02-18T01:16:20.439Z,99755.00
2023-02-18T01:18:48.505Z,99749.00
2023-02-18T01:21:16.915Z,99751.00
2023-02-18T01:23:46.577Z,99754.00
2023-02-18T01:26:17.091Z,99752.00
2023-02-18T01:28:45.019Z,99741.00
2023-02-18T01:31:15.334Z,99739.00
2023-02-18T01:33:44.154Z,99749.00
2023-02-18T01:36:12.756Z,99750.00
2023-02-18T01:38:41.420Z,99754.00
2023-02-18T01:41:11.441Z,99742.00
2023-02-18T01:43:40.348Z,99751.00
2023-02-18T01:46:18.762Z,99747.00
2023-02-18T01:48:52.834Z,99744.00
2023-02-18T01:51:26.996Z,99753.00
2023-02-18T01:54:00.242Z,99751.00
2023-02-18T01:56:36.141Z,99744.00
2023-02-18T01:59:10.134Z,99735.00
2023-02-18T02:01:39.560Z,99748.00
2023-02-18T02:04:09.502Z,99742.00
2023-02-18T02:06:37.722Z,99758.00
2023-02-18T02:09:10.853Z,99755.00
2023-02-18T02:12:08.597Z,99754.00
2023-02-18T02:14:58.571Z,99758.00
2023-02-18T02:17:39.299Z,99775.00
2023-02-18T02:20:49.617Z,99765.00
2023-02-18T02:24:05.698Z,99755.00
2023-02-18T02:27:18.941Z,99760.00
2023-02-18T02:30:32.288Z,99756.00
2023-02-18T02:33:28.865Z,99758.00
2023-02-18T02:36:06.878Z,99754.00
2023-02-18T02:38:45.109Z,99765.00
2023-02-18T02:41:28.764Z,99760.00
2023-02-18T02:44:13.030Z,99749.00
2023-02-18T02:46:46.911Z,99770.00
2023-02-18T02:49:29.665Z,99774.00
2023-02-18T02:52:05.881Z,99761.00
2023-02-18T02:54:33.947Z,99759.00
2023-02-18T02:57:10.856Z,99736.00
2023-02-18T02:59:50.334Z,99753.00
2023-02-18T03:02:31.649Z,99749.00
2023-02-18T03:05:19.028Z,99738.00
2023-02-18T03:08:31.272Z,99748.00
2023-02-18T03:11:07.548Z,99757.00
2023-02-18T03:13:57.369Z,99743.00
2023-02-18T03:16:43.847Z,99745.00
2023-02-18T03:19:18.439Z,99744.00
2023-02-18T03:21:57.710Z,99747.00
2023-02-18T03:24:33.041Z,99751.00
2023-02-18T03:27:09.283Z,99739.00
2023-02-18T03:29:39.016Z,99736.00
2023-02-18T03:32:11.450Z,99734.00
2023-02-18T03:34:45.183Z,99717.00
2023-02-18T03:37:16.367Z,99731.00
2023-02-18T03:39:53.466Z,99725.00
2023-02-18T03:42:26.768Z,99733.00
2023-02-18T03:44:54.725Z,99723.00
2023-02-18T03:47:25.543Z,99730.00
2023-02-18T03:49:53.406Z,99732.00
2023-02-18T03:52:21.513Z,99740.00
2023-02-18T03:54:52.427Z,99740.00
2023-02-18T03:57:20.320Z,99741.00
2023-02-18T03:59:48.147Z,99740.00
2023-02-18T04:02:15.984Z,99746.00
2023-02-18T04:04:43.833Z,99741.00
2023-02-18T04:07:11.845Z,99743.00
2023-02-18T04:09:39.676Z,99748.00
2023-02-18T04:12:09.217Z,99732.00
2023-02-18T04:14:37.147Z,99736.00
2023-02-18T04:17:05.199Z,99726.00
2023-02-18T04:19:33.064Z,99744.00
2023-02-18T04:22:01.096Z,99742.00
2023-02-18T04:24:28.951Z,99733.00
2023-02-18T04:26:56.879Z,99737.00
2023-02-18T04:29:26.128Z,99730.00
2023-02-18T04:31:54.041Z,99729.00
2023-02-18T04:34:21.984Z,99724.00
2023-02-18T04:36:49.885Z,99716.00
2023-02-18T04:39:17.754Z,99716.00
2023-02-18T04:41:45.616Z,99716.00
2023-02-18T04:44:13.484Z,99725.00
2023-02-18T04:46:42.712Z,99721.00
2023-02-18T04:49:10.597Z,99728.00
2023-02-18T04:51:38.501Z,99728.00
2023-02-18T04:54:06.634Z,99735.00
2023-02-18T04:56:34.497Z,99735.00
2023-02-18T04:59:02.342Z,99723.00
2023-02-18T05:01:30.302Z,99723.00
2023-02-18T05:03:59.541Z,99707.00
2023-02-18T05:06:27.484Z,99717.00
2023-02-18T05:08:55.489Z,99718.00
2023-02-18T05:11:23.346Z,99709.00
2023-02-18T05:13:51.256Z,99699.00
2023-02-18T05:16:19.146Z,99684.00
2023-02-18T05:18:46.965Z,99687.00
2023-02-18T05:21:16.209Z,99693.00
2023-02-18T05:23:44.071Z,99666.00
2023-02-18T05:26:12.225Z,99671.00
2023-02-18T05:28:40.107Z,99664.00
2023-02-18T05:31:08.193Z,99682.00
2023-02-18T05:33:36.132Z,99671.00
2023-02-18T05:36:04.471Z,99660.00
2023-02-18T05:38:33.622Z,99667.00
2023-02-18T05:41:01.528Z,99651.00
2023-02-18T05:43:29.388Z,99654.00
2023-02-18T05:45:57.229Z,99647.00
2023-02-18T05:48:25.071Z,99658.00
2023-02-18T05:50:55.483Z,99644.00
2023-02-18T05:53:23.348Z,99659.00
2023-02-18T05:55:52.530Z,99657.00
2023-02-18T05:58:20.501Z,99650.00
2023-02-18T06:00:48.322Z,99647.00
2023-02-18T06:03:16.305Z,99633.00
2023-02-18T06:05:44.145Z,99643.00
2023-02-18T06:08:12.020Z,99634.00
2023-02-18T06:10:41.853Z,99637.00
2023-02-18T06:13:11.098Z,99633.00
2023-02-18T06:15:39.675Z,99626.00
2023-02-18T06:18:08.356Z,99631.00
2023-02-18T06:20:36.289Z,99628.00
2023-02-18T06:23:04.220Z,99620.00
2023-02-18T06:25:32.148Z,99631.00
2023-02-18T06:28:00.017Z,99638.00
2023-02-18T06:30:29.318Z,99636.00
2023-02-18T06:32:57.181Z,99624.00
2023-02-18T06:35:25.115Z,99627.00
2023-02-18T06:37:53.083Z,99614.00
2023-02-18T06:40:20.920Z,99619.00
2023-02-18T06:42:48.766Z,99626.00
2023-02-18T06:45:16.812Z,99625.00
2023-02-18T06:47:46.032Z,99629.00
2023-02-18T06:50:14.219Z,99625.00
2023-02-18T06:52:42.077Z,99616.00
2023-02-18T06:55:10.639Z,99615.00
2023-02-18T06:57:38.498Z,99617.00
2023-02-18T07:00:08.482Z,99608.00
2023-02-18T07:02:36.313Z,99610.00
2023-02-18T07:05:05.974Z,99607.00
2023-02-18T07:07:33.849Z,99601.00
2023-02-18T07:10:01.739Z,99595.00
2023-02-18T07:12:29.590Z,99590.00
2023-02-18T07:14:57.465Z,99585.00
2023-02-18T07:17:25.519Z,99572.00
2023-02-18T07:19:53.415Z,99584.00
2023-02-18T07:22:23.147Z,99557.00
2023-02-18T07:24:53.018Z,99557.00
2023-02-18T07:27:21.637Z,99551.00
2023-02-18T07:29:50.004Z,99564.00
2023-02-18T07:32:20.604Z,99556.00
2023-02-18T07:34:48.505Z,99551.00
2023-02-18T07:37:16.401Z,99547.00
2023-02-18T07:39:46.143Z,99544.00
2023-02-18T07:42:14.993Z,99549.00
2023-02-18T07:44:43.507Z,99538.00
2023-02-18T07:47:17.211Z,99534.00
2023-02-18T07:49:45.326Z,99529.00
2023-02-18T07:52:13.728Z,99520.00
2023-02-18T07:54:41.782Z,99521.00
2023-02-18T07:57:11.048Z,99511.00
2023-02-18T07:59:38.932Z,99512.00
2023-02-18T08:02:07.643Z,99506.00
2023-02-18T08:04:35.885Z,99507.00
2023-02-18T08:07:03.763Z,99499.00
2023-02-18T08:09:31.627Z,99499.00
2023-02-18T08:11:59.522Z,99502.00
2023-02-18T08:14:28.727Z,99494.00
2023-02-18T08:16:56.861Z,99495.00
2023-02-18T08:19:24.744Z,99484.00
2023-02-18T08:21:52.732Z,99491.00
2023-02-18T08:24:20.663Z,99486.00
2023-02-18T08:26:59.833Z,99485.00
2023-02-18T08:29:31.000Z,99472.00
2023-02-18T08:31:59.537Z,99468.00
2023-02-18T08:34:27.665Z,99452.00
2023-02-18T08:36:55.581Z,99465.00
2023-02-18T08:39:23.413Z,99461.00
2023-02-18T08:41:51.259Z,99459.00
2023-02-18T08:44:19.071Z,99455.00
2023-02-18T08:46:49.432Z,99443.00
2023-02-18T08:49:20.787Z,99446.00
2023-02-18T08:51:49.368Z,99442.00
2023-02-18T08:54:17.620Z,99440.00
2023-02-18T08:56:46.585Z,99432.00
2023-02-18T08:59:14.486Z,99441.00
2023-02-18T09:01:42.649Z,99419.00
2023-02-18T09:04:11.881Z,99432.00
2023-02-18T09:06:40.174Z,99425.00
2023-02-18T09:09:08.161Z,99435.00
2023-02-18T09:11:36.129Z,99437.00
2023-02-18T09:14:04.025Z,99432.00
2023-02-18T09:16:32.040Z,99433.00
2023-02-18T09:18:59.975Z,99423.00
2023-02-18T09:21:29.627Z,99421.00
2023-02-18T09:23:58.339Z,99416.00
2023-02-18T09:26:27.331Z,99403.00
2023-02-18T09:28:57.944Z,99408.00
2023-02-18T09:31:28.260Z,99395.00
2023-02-18T09:34:02.693Z,99399.00
2023-02-18T09:36:32.893Z,99397.00
2023-02-18T09:39:00.884Z,99397.00
2023-02-18T09:41:40.341Z,99401.00
2023-02-18T09:44:17.372Z,99395.00
2023-02-18T09:46:52.890Z,99383.00
2023-02-18T09:49:26.057Z,99383.00
2023-02-18T09:51:57.355Z,99368.00
2023-02-18T09:54:25.217Z,99392.00
2023-02-18T09:56:54.694Z,99395.00
2023-02-18T09:59:26.509Z,99375.00
2023-02-18T10:01:57.061Z,99383.00
2023-02-18T10:04:35.331Z,99385.00
2023-02-18T10:07:06.618Z,99368.00
2023-02-18T10:09:37.291Z,99363.00
2023-02-18T10:12:16.372Z,99344.00
2023-02-18T10:14:54.237Z,99336.00
2023-02-18T10:17:25.009Z,99340.00
2023-02-18T10:19:56.440Z,99333.00
2023-02-18T10:22:28.456Z,99326.00
2023-02-18T10:25:00.754Z,99325.00
2023-02-18T10:27:31.611Z,99316.00
2023-02-18T10:30:20.001Z,99319.00
2023-02-18T10:32:50.038Z,99318.00
2023-02-18T10:35:25.528Z,99315.00
2023-02-18T10:38:10.574Z,99306.00
2023-02-18T10:40:55.721Z,99298.00
2023-02-18T10:43:37.114Z,99289.00
2023-02-18T10:46:18.254Z,99281.00
2023-02-18T10:49:05.549Z,99266.00
2023-02-18T10:51:38.359Z,99266.00
2023-02-18T10:54:08.931Z,99266.00
2023-02-18T10:56:43.775Z,99254.00
2023-02-18T10:59:21.299Z,99250.00
2023-02-18T11:01:57.778Z,99234.00
2023-02-18T11:04:35.077Z,99227.00
2023-02-18T11:07:09.214Z,99225.00
2023-02-18T11:09:47.526Z,99217.00
2023-02-18T11:12:21.333Z,99214.00
2023-02-18T11:15:04.902Z,99217.00
2023-02-18T11:17:37.301Z,99224.00
2023-02-18T11:20:27.256Z,99210.00
2023-02-18T11:23:13.671Z,99214.00
2023-02-18T11:25:56.278Z,99203.00
2023-02-18T11:28:43.708Z,99209.00
2023-02-18T11:31:20.839Z,99203.00
2023-02-18T11:33:53.962Z,99206.00
2023-02-18T11:36:28.865Z,99186.00
2023-02-18T11:38:59.258Z,99203.00
2023-02-18T11:41:41.666Z,99196.00
2023-02-18T11:44:23.034Z,99195.00
2023-02-18T11:47:04.164Z,99183.00
2023-02-18T11:49:34.694Z,99189.00
2023-02-18T11:52:17.832Z,99188.00
2023-02-18T11:55:02.706Z,99188.00
2023-02-18T11:57:33.426Z,99176.00
2023-02-18T12:00:02.298Z,99174.00
2023-02-18T12:02:41.404Z,99186.00
2023-02-18T12:05:19.188Z,99184.00
2023-02-18T12:07:50.344Z,99179.00
2023-02-18T12:10:28.517Z,99185.00
2023-02-18T12:13:07.478Z,99182.00
2023-02-18T12:15:57.404Z,99173.00
2023-02-18T12:18:57.572Z,99178.00
2023-02-18T12:21:50.668Z,99183.00
2023-02-18T12:24:45.310Z,99194.00
2023-02-18T12:27:25.021Z,99189.00
2023-02-18T12:30:26.633Z,99193.00
2023-02-18T12:33:08.818Z,99186.00
2023-02-18T12:36:01.170Z,99183.00
2023-02-18T12:38:56.278Z,99190.00
2023-02-18T12:41:54.703Z,99184.00
2023-02-18T12:44:45.141Z,99180.00
2023-02-18T12:47:48.808Z,99181.00
2023-02-18T12:50:55.618Z,99182.00
2023-02-18T12:53:50.532Z,99176.00
2023-02-18T12:57:08.219Z,99166.00
2023-02-18T13:00:34.927Z,99157.00
2023-02-18T13:03:56.170Z,99148.00
2023-02-18T13:06:57.364Z,99136.00
2023-02-18T13:09:44.996Z,99138.00
2023-02-18T13:12:23.900Z,99140.00
2023-02-18T13:15:00.375Z,99165.00
2023-02-18T13:17:36.361Z,99150.00
2023-02-18T13:20:15.366Z,99173.00
2023-02-18T13:22:43.888Z,99170.00
2023-02-18T13:25:14.977Z,99165.00
2023-02-18T13:27:51.740Z,99179.00
2023-02-18T13:30:27.619Z,99168.00
2023-02-18T13:33:09.217Z,99168.00
2023-02-18T13:35:44.194Z,99168.00
2023-02-18T13:38:59.526Z,99185.00
2023-02-18T13:41:28.333Z,99169.00
2023-02-18T13:43:56.265Z,99181.00
2023-02-18T13:46:25.716Z,99172.00
2023-02-18T13:49:04.525Z,99181.00
2023-02-18T13:51:40.726Z,99178.00
2023-02-18T13:54:23.124Z,99176.00
2023-02-18T13:56:56.309Z,99171.00
2023-02-18T13:59:34.007Z,99166.00
2023-02-18T14:02:32.261Z,99175.00
2023-02-18T14:05:22.614Z,99173.00
2023-02-18T14:08:07.835Z,99179.00
2023-02-18T14:10:38.519Z,99178.00
2023-02-18T14:13:39.335Z,99182.00
2023-02-18T14:16:08.379Z,99153.00
2023-02-18T14:18:59.980Z,99172.00
2023-02-18T14:21:41.623Z,99181.00
2023-02-18T14:24:13.615Z,99170.00
2023-02-18T14:26:47.597Z,99184.00
2023-02-18T14:29:26.591Z,99173.00
2023-02-18T14:32:02.082Z,99188.00
2023-02-18T14:35:08.567Z,99192.00
2023-02-18T14:37:58.287Z,99196.00
2023-02-18T14:40:50.329Z,99186.00
2023-02-18T14:43:36.894Z,99206.00
2023-02-18T14:46:19.902Z,99217.00
2023-02-18T14:49:10.998Z,99207.00
2023-02-18T14:51:43.673Z,99205.00
2023-02-18T14:54:18.219Z,99190.00
2023-02-18T14:57:00.195Z,99201.00
2023-02-18T14:59:35.007Z,99210.00
2023-02-18T15:02:03.166Z,99195.00
2023-02-18T15:04:31.218Z,99204.00
2023-02-18T15:07:02.607Z,99207.00
2023-02-18T15:09:31.459Z,99195.00
2023-02-18T15:12:05.596Z,99205.00
2023-02-18T15:14:38.645Z,99207.00
2023-02-18T15:17:14.339Z,99228.00
2023-02-18T15:19:45.800Z,99229.00
2023-02-18T15:22:19.776Z,99226.00
2023-02-18T15:24:49.532Z,99244.00
2023-02-18T15:27:24.240Z,99228.00
2023-02-18T15:29:53.999Z,99220.00
2023-02-18T15:32:27.320Z,99241.00
2023-02-18T15:35:01.654Z,99219.00
2023-02-18T15:37:30.967Z,99238.00
2023-02-18T15:39:59.338Z,99245.00
2023-02-18T15:42:32.399Z,99248.00
2023-02-18T15:45:15.173Z,99219.00
2023-02-18T15:47:45.055Z,99243.00
2023-02-18T15:50:21.283Z,99246.00
2023-02-18T15:52:50.737Z,99228.00
2023-02-18T15:55:28.146Z,99249.00
2023-02-18T15:57:58.357Z,99254.00
2023-02-18T16:00:31.180Z,99251.00
2023-02-18T16:03:13.682Z,99249.00
2023-02-18T16:05:42.747Z,99264.00
2023-02-18T16:08:16.885Z,99263.00
2023-02-18T16:10:55.999Z,99263.00
2023-02-18T16:13:26.900Z,99270.00
2023-02-18T16:15:55.247Z,99266.00
2023-02-18T16:18:31.500Z,99274.00
2023-02-18T16:21:05.983Z,99276.00
2023-02-18T16:23:42.332Z,99279.00
2023-02-18T16:26:22.822Z,99289.00
2023-02-18T16:28:55.260Z,99294.00
2023-02-18T16:31:23.407Z,99289.00
2023-02-18T16:33:51.423Z,99289.00
2023-02-18T16:36:20.386Z,99307.00
2023-02-18T16:38:49.163Z,99291.00
2023-02-18T16:41:18.632Z,99306.00
2023-02-18T16:43:46.817Z,99306.00
2023-02-18T16:46:20.171Z,99306.00
2023-02-18T16:48:52.996Z,99309.00
2023-02-18T16:51:30.038Z,99310.00
2023-02-18T16:53:58.521Z,99309.00
2023-02-18T16:56:30.912Z,99325.00
2023-02-18T16:58:58.771Z,99333.00
2023-02-18T17:01:31.745Z,99325.00
2023-02-18T17:04:01.964Z,99337.00
2023-02-18T17:06:30.608Z,99335.00
2023-02-18T17:08:58.794Z,99336.00
2023-02-18T17:11:31.381Z,99339.00
2023-02-18T17:13:59.849Z,99338.00
2023-02-18T17:16:29.737Z,99332.00
2023-02-18T17:18:58.027Z,99336.00
2023-02-18T17:21:26.743Z,99351.00
2023-02-18T17:23:54.827Z,99353.00
2023-02-18T17:26:25.408Z,99343.00
2023-02-18T17:28:53.873Z,99346.00
2023-02-18T17:31:26.058Z,99354.00
2023-02-18T17:33:57.758Z,99369.00
2023-02-18T17:36:25.837Z,99357.00
2023-02-18T17:38:54.174Z,99362.00
2023-02-18T17:41:22.163Z,99363.00
2023-02-18T17:43:50.079Z,99380.00
2023-02-18T17:46:19.941Z,99367.00
2023-02-18T17:48:48.807Z,99387.00
2023-02-18T17:51:26.624Z,99384.00
2023-02-18T17:53:55.197Z,99389.00
2023-02-18T17:56:23.711Z,99407.00
2023-02-18T17:58:51.615Z,99403.00
2023-02-18T18:01:21.018Z,99407.00
2023-02-18T18:03:49.007Z,99411.00
2023-02-18T18:06:21.383Z,99414.00
2023-02-18T18:08:49.658Z,99412.00
2023-02-18T18:11:22.406Z,99407.00
2023-02-18T18:13:52.748Z,99420.00
2023-02-18T18:16:21.529Z,99421.00
2023-02-18T18:18:49.553Z,99424.00
2023-02-18T18:21:24.227Z,99423.00
2023-02-18T18:23:52.526Z,99415.00
2023-02-18T18:26:20.502Z,99423.00
2023-02-18T18:28:48.699Z,99439.00
2023-02-18T18:31:19.710Z,99430.00
2023-02-18T18:33:51.452Z,99431.00
2023-02-18T18:36:24.004Z,99424.00
2023-02-18T18:38:52.346Z,99424.00
2023-02-18T18:41:23.146Z,99431.00
2023-02-18T18:43:51.559Z,99433.00
2023-02-18T18:46:19.761Z,99411.00
2023-02-18T18:48:47.900Z,99432.00
2023-02-18T18:51:17.698Z,99445.00
2023-02-18T18:53:47.538Z,99428.00
2023-02-18T18:56:15.507Z,99438.00
2023-02-18T18:58:43.432Z,99438.00
2023-02-18T19:01:17.930Z,99430.00
2023-02-18T19:03:47.209Z,99457.00
2023-02-18T19:06:17.754Z,99450.00
2023-02-18T19:08:48.245Z,99460.00
2023-02-18T19:11:16.949Z,99455.00
2023-02-18T19:13:45.804Z,99446.00
2023-02-18T19:16:21.190Z,99460.00
2023-02-18T19:18:50.198Z,99451.00
2023-02-18T19:21:18.142Z,99459.00
2023-02-18T19:23:47.463Z,99458.00
2023-02-18T19:26:17.276Z,99462.00
2023-02-18T19:28:46.141Z,99464.00
2023-02-18T19:31:14.607Z,99462.00
2023-02-18T19:33:45.514Z,99468.00
2023-02-18T19:36:14.643Z,99465.00
2023-02-18T19:38:42.609Z,99461.00
2023-02-18T19:41:14.961Z,99459.00
2023-02-18T19:43:46.399Z,99468.00
2023-02-18T19:46:17.486Z,99466.00
2023-02-18T19:48:50.143Z,99468.00
2023-02-18T19:51:18.188Z,99463.00
2023-02-18T19:53:46.751Z,99456.00
2023-02-18T19:56:15.974Z,99466.00
2023-02-18T19:58:44.103Z,99465.00
2023-02-18T20:01:13.344Z,99459.00
2023-02-18T20:03:41.390Z,99459.00
2023-02-18T20:06:17.618Z,99465.00
2023-02-18T20:08:45.975Z,99461.00
2023-02-18T20:11:15.217Z,99462.00
2023-02-18T20:13:43.716Z,99472.00
2023-02-18T20:16:11.928Z,99474.00
2023-02-18T20:18:39.936Z,99481.00
2023-02-18T20:21:11.252Z,99489.00
2023-02-18T20:23:39.283Z,99484.00
2023-02-18T20:26:09.264Z,99496.00
2023-02-18T20:28:38.507Z,99491.00
2023-02-18T20:31:08.233Z,99494.00
2023-02-18T20:33:36.590Z,99490.00
2023-02-18T20:36:07.057Z,99487.00
2023-02-18T20:38:35.296Z,99500.00
2023-02-18T20:41:07.558Z,99504.00
2023-02-18T20:43:35.796Z,99503.00
2023-02-18T20:46:07.789Z,99499.00
2023-02-18T20:48:37.740Z,99493.00
2023-02-18T20:51:06.976Z,99485.00
2023-02-18T20:53:36.625Z,99486.00
2023-02-18T20:56:05.425Z,99479.00
2023-02-18T20:58:34.698Z,99486.00
2023-02-18T21:01:07.457Z,99480.00
2023-02-18T21:03:36.391Z,99487.00
2023-02-18T21:06:08.042Z,99479.00
2023-02-18T21:08:40.464Z,99484.00
2023-02-18T21:11:11.975Z,99485.00
2023-02-18T21:13:40.366Z,99499.00
2023-02-18T21:16:10.906Z,99498.00
2023-02-18T21:18:38.888Z,99492.00
2023-02-18T21:21:10.287Z,99475.00
2023-02-18T21:23:40.291Z,99492.00
2023-02-18T21:26:11.292Z,99491.00
2023-02-18T21:28:40.382Z,99484.00
2023-02-18T21:31:19.183Z,99480.00
2023-02-18T21:33:47.807Z,99473.00
2023-02-18T21:36:16.996Z,99476.00
2023-02-18T21:38:45.897Z,99468.00
2023-02-18T21:41:14.352Z,99485.00
2023-02-18T21:43:45.925Z,99477.00
2023-02-18T21:46:19.071Z,99475.00
2023-02-18T21:49:03.303Z,99471.00
2023-02-18T21:51:51.808Z,99472.00
2023-02-18T21:54:22.512Z,99477.00
2023-02-18T21:56:51.317Z,99470.00
2023-02-18T21:59:21.354Z,99467.00
2023-02-18T22:01:51.389Z,99467.00
2023-02-18T22:04:19.452Z,99461.00
2023-02-18T22:06:47.999Z,99471.00
2023-02-18T22:09:16.151Z,99468.00
2023-02-18T22:11:44.403Z,99460.00
2023-02-18T22:14:14.659Z,99454.00
2023-02-18T22:16:43.283Z,99462.00
2023-02-18T22:19:14.832Z,99460.00
2023-02-18T22:21:44.572Z,99455.00
2023-02-18T22:24:15.559Z,99457.00
2023-02-18T22:26:45.018Z,99458.00
2023-02-18T22:29:15.223Z,99455.00
2023-02-18T22:31:43.808Z,99460.00
2023-02-18T22:34:12.962Z,99456.00
2023-02-18T22:36:41.063Z,99445.00
2023-02-18T22:39:11.350Z,99457.00
2023-02-18T22:41:39.336Z,99466.00
2023-02-18T22:44:09.946Z,99462.00
2023-02-18T22:46:38.919Z,99468.00
2023-02-18T22:49:08.705Z,99464.00
2023-02-18T22:51:40.942Z,99468.00
2023-02-18T22:54:13.269Z,99469.00
2023-02-18T22:56:41.454Z,99464.00
2023-02-18T22:59:09.356Z,99468.00
2023-02-18T23:01:40.063Z,99469.00
2023-02-18T23:04:10.869Z,99460.00
2023-02-18T23:06:43.412Z,99454.00
2023-02-18T23:09:16.636Z,99467.00
2023-02-18T23:11:44.645Z,99470.00
2023-02-18T23:14:22.307Z,99467.00
2023-02-18T23:17:11.713Z,99462.00
2023-02-18T23:19:41.611Z,99466.00
2023-02-18T23:22:14.184Z,99465.00
2023-02-18T23:24:44.721Z,99470.00
2023-02-18T23:27:18.025Z,99470.00
2023-02-18T23:29:46.118Z,99467.00
2023-02-18T23:32:14.039Z,99469.00
2023-02-18T23:34:42.055Z,99464.00
2023-02-18T23:37:12.049Z,99466.00
2023-02-18T23:39:40.720Z,99454.00
2023-02-18T23:42:08.917Z,99460.00
2023-02-18T23:44:36.907Z,99459.00
2023-02-18T23:47:04.822Z,99455.00
2023-02-18T23:49:32.669Z,99450.00
2023-02-18T23:52:00.511Z,99463.00
2023-02-18T23:54:29.663Z,99467.00
2023-02-18T23:56:57.500Z,99461.00
2023-02-18T23:59:25.342Z,99466.00
